sensor_id;sensor_type;location;lat;lon;timestamp;temperature;humidity
11538;DHT22;50159;49.426;11.182;2023-08-12T00:01:16;17.50;99.90
11538;DHT22;50159;49.426;11.182;2023-08-12T00:03:43;17.40;99.90
11538;DHT22;50159;49.426;11.182;2023-08-12T00:06:10;17.40;99.90
11538;DHT22;50159;49.426;11.182;2023-08-12T00:08:36;17.40;99.90
11538;DHT22;50159;49.426;11.182;2023-08-12T00:11:03;17.40;99.90
11538;DHT22;50159;49.426;11.182;2023-08-12T00:13:30;17.30;99.90
11538;DHT22;50159;49.426;11.182;2023-08-12T00:15:57;17.30;99.90
11538;DHT22;50159;49.426;11.182;2023-08-12T00:18:24;17.30;99.90
11538;DHT22;50159;49.426;11.182;2023-08-12T00:20:50;17.30;99.90
11538;DHT22;50159;49.426;11.182;2023-08-12T00:23:18;17.20;99.90
11538;DHT22;50159;49.426;11.182;2023-08-12T00:25:45;17.20;99.90
11538;DHT22;50159;49.426;11.182;2023-08-12T00:28:11;17.20;99.90
11538;DHT22;50159;49.426;11.182;2023-08-12T00:30:39;17.20;99.90
11538;DHT22;50159;49.426;11.182;2023-08-12T00:33:06;17.20;99.90
11538;DHT22;50159;49.426;11.182;2023-08-12T00:35:33;17.20;99.90
11538;DHT22;50159;49.426;11.182;2023-08-12T00:37:59;17.10;99.90
11538;DHT22;50159;49.426;11.182;2023-08-12T00:40:26;17.10;99.90
11538;DHT22;50159;49.426;11.182;2023-08-12T00:42:53;17.10;99.90
11538;DHT22;50159;49.426;11.182;2023-08-12T00:45:20;17.00;99.90
11538;DHT22;50159;49.426;11.182;2023-08-12T00:47:46;17.10;99.90
11538;DHT22;50159;49.426;11.182;2023-08-12T00:50:14;17.00;99.90
11538;DHT22;50159;49.426;11.182;2023-08-12T00:52:41;17.00;99.90
11538;DHT22;50159;49.426;11.182;2023-08-12T00:55:08;17.00;99.90
11538;DHT22;50159;49.426;11.182;2023-08-12T00:57:36;17.00;99.90
11538;DHT22;50159;49.426;11.182;2023-08-12T01:00:03;17.00;99.90
11538;DHT22;50159;49.426;11.182;2023-08-12T01:02:30;16.90;99.90
11538;DHT22;50159;49.426;11.182;2023-08-12T01:04:58;16.90;99.90
11538;DHT22;50159;49.426;11.182;2023-08-12T01:07:25;16.90;99.90
11538;DHT22;50159;49.426;11.182;2023-08-12T01:09:52;16.90;99.90
11538;DHT22;50159;49.426;11.182;2023-08-12T01:12:33;16.80;99.90
11538;DHT22;50159;49.426;11.182;2023-08-12T01:15:07;16.80;99.90
11538;DHT22;50159;49.426;11.182;2023-08-12T01:17:38;16.80;99.90
11538;DHT22;50159;49.426;11.182;2023-08-12T01:20:08;16.80;99.90
11538;DHT22;50159;49.426;11.182;2023-08-12T01:22:38;16.70;99.90
11538;DHT22;50159;49.426;11.182;2023-08-12T01:25:08;16.70;99.90
11538;DHT22;50159;49.426;11.182;2023-08-12T01:27:36;16.70;99.90
11538;DHT22;50159;49.426;11.182;2023-08-12T01:30:04;16.60;99.90
11538;DHT22;50159;49.426;11.182;2023-08-12T01:32:49;16.60;99.90
11538;DHT22;50159;49.426;11.182;2023-08-12T01:35:20;16.60;99.90
11538;DHT22;50159;49.426;11.182;2023-08-12T01:37:50;16.60;99.90
11538;DHT22;50159;49.426;11.182;2023-08-12T01:40:19;16.50;99.90
11538;DHT22;50159;49.426;11.182;2023-08-12T01:42:46;16.50;99.90
11538;DHT22;50159;49.426;11.182;2023-08-12T01:45:14;16.50;99.90
11538;DHT22;50159;49.426;11.182;2023-08-12T01:47:44;16.50;99.90
11538;DHT22;50159;49.426;11.182;2023-08-12T01:50:11;16.40;99.90
11538;DHT22;50159;49.426;11.182;2023-08-12T01:52:38;16.40;99.90
11538;DHT22;50159;49.426;11.182;2023-08-12T01:55:04;16.30;99.90
11538;DHT22;50159;49.426;11.182;2023-08-12T01:57:31;16.30;99.90
11538;DHT22;50159;49.426;11.182;2023-08-12T01:59:58;16.30;99.90
11538;DHT22;50159;49.426;11.182;2023-08-12T02:02:25;16.30;99.90
11538;DHT22;50159;49.426;11.182;2023-08-12T02:04:51;16.30;99.90
11538;DHT22;50159;49.426;11.182;2023-08-12T02:07:18;16.20;99.90
11538;DHT22;50159;49.426;11.182;2023-08-12T02:09:45;16.20;99.90
11538;DHT22;50159;49.426;11.182;2023-08-12T02:12:11;16.20;99.90
11538;DHT22;50159;49.426;11.182;2023-08-12T02:14:38;16.20;99.90
11538;DHT22;50159;49.426;11.182;2023-08-12T02:17:05;16.10;99.90
11538;DHT22;50159;49.426;11.182;2023-08-12T02:19:33;16.10;99.90
11538;DHT22;50159;49.426;11.182;2023-08-12T02:22:01;16.00;99.90
11538;DHT22;50159;49.426;11.182;2023-08-12T02:24:28;16.00;99.90
11538;DHT22;50159;49.426;11.182;2023-08-12T02:26:55;16.00;99.90
11538;DHT22;50159;49.426;11.182;2023-08-12T02:29:22;16.00;99.90
11538;DHT22;50159;49.426;11.182;2023-08-12T02:31:48;15.90;99.90
11538;DHT22;50159;49.426;11.182;2023-08-12T02:34:15;15.90;99.90
11538;DHT22;50159;49.426;11.182;2023-08-12T02:36:42;15.90;99.90
11538;DHT22;50159;49.426;11.182;2023-08-12T02:39:09;15.90;99.90
11538;DHT22;50159;49.426;11.182;2023-08-12T02:41:35;15.80;99.90
11538;DHT22;50159;49.426;11.182;2023-08-12T02:44:02;15.80;99.90
11538;DHT22;50159;49.426;11.182;2023-08-12T02:46:29;15.80;99.90
11538;DHT22;50159;49.426;11.182;2023-08-12T02:48:56;15.80;99.90
11538;DHT22;50159;49.426;11.182;2023-08-12T02:51:22;15.80;99.90
11538;DHT22;50159;49.426;11.182;2023-08-12T02:53:49;15.70;99.90
11538;DHT22;50159;49.426;11.182;2023-08-12T02:56:16;15.70;99.90
11538;DHT22;50159;49.426;11.182;2023-08-12T02:58:42;15.70;99.90
11538;DHT22;50159;49.426;11.182;2023-08-12T03:01:09;15.70;99.90
11538;DHT22;50159;49.426;11.182;2023-08-12T03:03:36;15.70;99.90
11538;DHT22;50159;49.426;11.182;2023-08-12T03:06:03;15.70;99.90
11538;DHT22;50159;49.426;11.182;2023-08-12T03:08:29;15.70;99.90
11538;DHT22;50159;49.426;11.182;2023-08-12T03:11:00;15.60;99.90
11538;DHT22;50159;49.426;11.182;2023-08-12T03:13:28;15.60;99.90
11538;DHT22;50159;49.426;11.182;2023-08-12T03:15:55;15.60;99.90
11538;DHT22;50159;49.426;11.182;2023-08-12T03:18:22;15.60;99.90
11538;DHT22;50159;49.426;11.182;2023-08-12T03:20:49;15.60;99.90
11538;DHT22;50159;49.426;11.182;2023-08-12T03:23:17;15.60;99.90
11538;DHT22;50159;49.426;11.182;2023-08-12T03:25:44;15.60;99.90
11538;DHT22;50159;49.426;11.182;2023-08-12T03:28:12;15.60;99.90
11538;DHT22;50159;49.426;11.182;2023-08-12T03:30:39;15.60;99.90
11538;DHT22;50159;49.426;11.182;2023-08-12T03:33:06;15.50;99.90
11538;DHT22;50159;49.426;11.182;2023-08-12T03:35:33;15.50;99.90
11538;DHT22;50159;49.426;11.182;2023-08-12T03:37:59;15.50;99.90
11538;DHT22;50159;49.426;11.182;2023-08-12T03:40:26;15.50;99.90
11538;DHT22;50159;49.426;11.182;2023-08-12T03:42:53;15.50;99.90
11538;DHT22;50159;49.426;11.182;2023-08-12T03:45:19;15.50;99.90
11538;DHT22;50159;49.426;11.182;2023-08-12T03:47:46;15.40;99.90
11538;DHT22;50159;49.426;11.182;2023-08-12T03:50:13;15.40;99.90
11538;DHT22;50159;49.426;11.182;2023-08-12T03:52:39;15.40;99.90
11538;DHT22;50159;49.426;11.182;2023-08-12T03:55:06;15.40;99.90
11538;DHT22;50159;49.426;11.182;2023-08-12T03:57:33;15.40;99.90
11538;DHT22;50159;49.426;11.182;2023-08-12T04:00:00;15.40;99.90
11538;DHT22;50159;49.426;11.182;2023-08-12T04:02:27;15.40;99.90
11538;DHT22;50159;49.426;11.182;2023-08-12T04:04:54;15.40;99.90
11538;DHT22;50159;49.426;11.182;2023-08-12T04:07:21;15.40;99.90
11538;DHT22;50159;49.426;11.182;2023-08-12T04:09:47;15.40;99.90
11538;DHT22;50159;49.426;11.182;2023-08-12T04:12:14;15.40;99.90
11538;DHT22;50159;49.426;11.182;2023-08-12T04:14:41;15.40;99.90
11538;DHT22;50159;49.426;11.182;2023-08-12T04:17:08;15.40;99.90
11538;DHT22;50159;49.426;11.182;2023-08-12T04:19:35;15.40;99.90
11538;DHT22;50159;49.426;11.182;2023-08-12T04:22:02;15.40;99.90
11538;DHT22;50159;49.426;11.182;2023-08-12T04:24:28;15.40;99.90
11538;DHT22;50159;49.426;11.182;2023-08-12T04:26:55;15.40;99.90
11538;DHT22;50159;49.426;11.182;2023-08-12T04:29:22;15.50;99.90
11538;DHT22;50159;49.426;11.182;2023-08-12T04:31:49;15.40;99.90
11538;DHT22;50159;49.426;11.182;2023-08-12T04:34:15;15.50;99.90
11538;DHT22;50159;49.426;11.182;2023-08-12T04:36:42;15.50;99.90
11538;DHT22;50159;49.426;11.182;2023-08-12T04:39:10;15.60;99.90
11538;DHT22;50159;49.426;11.182;2023-08-12T04:41:37;15.60;99.90
11538;DHT22;50159;49.426;11.182;2023-08-12T04:44:05;15.60;99.90
11538;DHT22;50159;49.426;11.182;2023-08-12T04:46:32;15.70;99.90
11538;DHT22;50159;49.426;11.182;2023-08-12T04:48:59;15.70;99.90
11538;DHT22;50159;49.426;11.182;2023-08-12T04:51:26;15.80;99.90
11538;DHT22;50159;49.426;11.182;2023-08-12T04:53:53;15.80;99.90
11538;DHT22;50159;49.426;11.182;2023-08-12T04:56:20;15.90;99.90
11538;DHT22;50159;49.426;11.182;2023-08-12T04:58:46;16.00;99.90
11538;DHT22;50159;49.426;11.182;2023-08-12T05:01:13;16.00;99.90
11538;DHT22;50159;49.426;11.182;2023-08-12T05:03:40;16.10;99.90
11538;DHT22;50159;49.426;11.182;2023-08-12T05:06:06;16.20;99.90
11538;DHT22;50159;49.426;11.182;2023-08-12T05:08:33;16.30;99.90
11538;DHT22;50159;49.426;11.182;2023-08-12T05:11:00;16.40;99.90
11538;DHT22;50159;49.426;11.182;2023-08-12T05:13:27;16.40;99.90
11538;DHT22;50159;49.426;11.182;2023-08-12T05:15:55;16.50;99.90
11538;DHT22;50159;49.426;11.182;2023-08-12T05:18:21;16.60;99.90
11538;DHT22;50159;49.426;11.182;2023-08-12T05:20:51;16.70;99.90
11538;DHT22;50159;49.426;11.182;2023-08-12T05:23:19;16.70;99.90
11538;DHT22;50159;49.426;11.182;2023-08-12T05:25:46;16.80;99.90
11538;DHT22;50159;49.426;11.182;2023-08-12T05:28:13;16.90;99.90
11538;DHT22;50159;49.426;11.182;2023-08-12T05:30:40;17.00;99.90
11538;DHT22;50159;49.426;11.182;2023-08-12T05:33:06;17.10;99.90
11538;DHT22;50159;49.426;11.182;2023-08-12T05:35:36;17.10;99.90
11538;DHT22;50159;49.426;11.182;2023-08-12T05:38:03;17.20;99.90
11538;DHT22;50159;49.426;11.182;2023-08-12T05:40:30;17.30;99.90
11538;DHT22;50159;49.426;11.182;2023-08-12T05:42:57;17.30;99.90
11538;DHT22;50159;49.426;11.182;2023-08-12T05:45:23;17.40;99.90
11538;DHT22;50159;49.426;11.182;2023-08-12T05:47:59;17.50;99.90
11538;DHT22;50159;49.426;11.182;2023-08-12T05:50:26;17.60;99.90
11538;DHT22;50159;49.426;11.182;2023-08-12T05:52:53;17.60;99.90
11538;DHT22;50159;49.426;11.182;2023-08-12T05:55:19;17.80;99.90
11538;DHT22;50159;49.426;11.182;2023-08-12T05:57:46;18.00;99.90
11538;DHT22;50159;49.426;11.182;2023-08-12T06:00:13;18.10;99.90
11538;DHT22;50159;49.426;11.182;2023-08-12T06:02:40;18.30;99.90
11538;DHT22;50159;49.426;11.182;2023-08-12T06:05:07;18.50;99.90
11538;DHT22;50159;49.426;11.182;2023-08-12T06:07:34;18.70;99.90
11538;DHT22;50159;49.426;11.182;2023-08-12T06:10:02;19.00;99.90
11538;DHT22;50159;49.426;11.182;2023-08-12T06:12:29;19.20;99.90
11538;DHT22;50159;49.426;11.182;2023-08-12T06:14:55;19.30;99.90
11538;DHT22;50159;49.426;11.182;2023-08-12T06:17:22;19.50;99.90
11538;DHT22;50159;49.426;11.182;2023-08-12T06:19:49;19.50;99.90
11538;DHT22;50159;49.426;11.182;2023-08-12T06:22:15;19.60;99.90
11538;DHT22;50159;49.426;11.182;2023-08-12T06:24:42;19.70;99.90
11538;DHT22;50159;49.426;11.182;2023-08-12T06:27:09;19.70;99.90
11538;DHT22;50159;49.426;11.182;2023-08-12T06:29:35;19.80;99.90
11538;DHT22;50159;49.426;11.182;2023-08-12T06:32:02;19.80;99.90
11538;DHT22;50159;49.426;11.182;2023-08-12T06:34:29;19.90;99.90
11538;DHT22;50159;49.426;11.182;2023-08-12T06:36:55;19.90;99.90
11538;DHT22;50159;49.426;11.182;2023-08-12T06:39:22;20.00;99.90
11538;DHT22;50159;49.426;11.182;2023-08-12T06:41:49;20.00;99.90
11538;DHT22;50159;49.426;11.182;2023-08-12T06:44:17;20.10;99.90
11538;DHT22;50159;49.426;11.182;2023-08-12T06:46:44;20.10;99.90
11538;DHT22;50159;49.426;11.182;2023-08-12T06:49:11;20.20;99.90
11538;DHT22;50159;49.426;11.182;2023-08-12T06:51:38;20.20;99.90
11538;DHT22;50159;49.426;11.182;2023-08-12T06:54:05;20.30;99.90
11538;DHT22;50159;49.426;11.182;2023-08-12T06:56:31;20.60;99.90
11538;DHT22;50159;49.426;11.182;2023-08-12T06:58:58;20.50;99.90
11538;DHT22;50159;49.426;11.182;2023-08-12T07:01:25;20.60;99.90
11538;DHT22;50159;49.426;11.182;2023-08-12T07:03:52;20.70;99.90
11538;DHT22;50159;49.426;11.182;2023-08-12T07:06:18;20.70;99.90
11538;DHT22;50159;49.426;11.182;2023-08-12T07:08:45;20.80;99.90
11538;DHT22;50159;49.426;11.182;2023-08-12T07:11:12;20.90;99.90
11538;DHT22;50159;49.426;11.182;2023-08-12T07:13:39;20.90;99.90
11538;DHT22;50159;49.426;11.182;2023-08-12T07:16:06;20.90;99.90
11538;DHT22;50159;49.426;11.182;2023-08-12T07:18:32;21.00;99.90
11538;DHT22;50159;49.426;11.182;2023-08-12T07:20:59;21.10;99.90
11538;DHT22;50159;49.426;11.182;2023-08-12T07:23:26;21.20;99.90
11538;DHT22;50159;49.426;11.182;2023-08-12T07:25:53;21.30;99.90
11538;DHT22;50159;49.426;11.182;2023-08-12T07:28:20;21.40;99.90
11538;DHT22;50159;49.426;11.182;2023-08-12T07:30:48;21.50;99.90
11538;DHT22;50159;49.426;11.182;2023-08-12T07:33:16;21.60;99.90
11538;DHT22;50159;49.426;11.182;2023-08-12T07:35:42;21.70;99.90
11538;DHT22;50159;49.426;11.182;2023-08-12T07:38:09;21.80;99.90
11538;DHT22;50159;49.426;11.182;2023-08-12T07:40:36;21.90;99.90
11538;DHT22;50159;49.426;11.182;2023-08-12T07:43:06;21.90;99.90
11538;DHT22;50159;49.426;11.182;2023-08-12T07:45:33;22.00;99.90
11538;DHT22;50159;49.426;11.182;2023-08-12T07:48:00;22.10;99.90
11538;DHT22;50159;49.426;11.182;2023-08-12T07:50:28;22.20;99.90
11538;DHT22;50159;49.426;11.182;2023-08-12T07:52:54;22.30;99.90
11538;DHT22;50159;49.426;11.182;2023-08-12T07:55:21;22.60;99.90
11538;DHT22;50159;49.426;11.182;2023-08-12T07:57:52;22.90;99.90
11538;DHT22;50159;49.426;11.182;2023-08-12T08:00:19;23.10;99.90
11538;DHT22;50159;49.426;11.182;2023-08-12T08:02:46;23.20;99.10
11538;DHT22;50159;49.426;11.182;2023-08-12T08:05:12;23.30;98.50
11538;DHT22;50159;49.426;11.182;2023-08-12T08:07:39;23.40;98.20
11538;DHT22;50159;49.426;11.182;2023-08-12T08:10:06;23.40;98.10
11538;DHT22;50159;49.426;11.182;2023-08-12T08:12:33;23.40;97.60
11538;DHT22;50159;49.426;11.182;2023-08-12T08:15:00;23.50;97.40
11538;DHT22;50159;49.426;11.182;2023-08-12T08:17:26;23.50;96.50
11538;DHT22;50159;49.426;11.182;2023-08-12T08:19:53;23.50;96.20
11538;DHT22;50159;49.426;11.182;2023-08-12T08:22:20;23.60;97.10
11538;DHT22;50159;49.426;11.182;2023-08-12T08:24:47;23.60;96.20
11538;DHT22;50159;49.426;11.182;2023-08-12T08:27:13;23.60;96.00
11538;DHT22;50159;49.426;11.182;2023-08-12T08:29:41;23.70;96.30
11538;DHT22;50159;49.426;11.182;2023-08-12T08:32:07;23.80;96.40
11538;DHT22;50159;49.426;11.182;2023-08-12T08:34:35;23.80;94.50
11538;DHT22;50159;49.426;11.182;2023-08-12T08:37:02;23.80;94.80
11538;DHT22;50159;49.426;11.182;2023-08-12T08:39:29;23.90;94.40
11538;DHT22;50159;49.426;11.182;2023-08-12T08:41:56;23.90;94.40
11538;DHT22;50159;49.426;11.182;2023-08-12T08:44:28;24.20;95.60
11538;DHT22;50159;49.426;11.182;2023-08-12T08:46:55;24.50;94.20
11538;DHT22;50159;49.426;11.182;2023-08-12T08:49:24;24.70;91.90
11538;DHT22;50159;49.426;11.182;2023-08-12T08:51:52;24.70;92.50
11538;DHT22;50159;49.426;11.182;2023-08-12T08:54:19;24.60;93.10
11538;DHT22;50159;49.426;11.182;2023-08-12T08:56:48;24.50;92.70
11538;DHT22;50159;49.426;11.182;2023-08-12T08:59:18;24.40;92.50
11538;DHT22;50159;49.426;11.182;2023-08-12T09:01:46;24.30;92.90
11538;DHT22;50159;49.426;11.182;2023-08-12T09:04:19;24.20;93.20
11538;DHT22;50159;49.426;11.182;2023-08-12T09:06:47;24.20;93.20
11538;DHT22;50159;49.426;11.182;2023-08-12T09:09:19;24.10;92.90
11538;DHT22;50159;49.426;11.182;2023-08-12T09:11:47;24.00;92.70
11538;DHT22;50159;49.426;11.182;2023-08-12T09:14:14;24.00;92.40
11538;DHT22;50159;49.426;11.182;2023-08-12T09:16:41;24.00;92.80
11538;DHT22;50159;49.426;11.182;2023-08-12T09:19:08;24.10;92.60
11538;DHT22;50159;49.426;11.182;2023-08-12T09:21:35;24.30;92.30
11538;DHT22;50159;49.426;11.182;2023-08-12T09:24:04;24.60;93.50
11538;DHT22;50159;49.426;11.182;2023-08-12T09:26:31;24.90;91.70
11538;DHT22;50159;49.426;11.182;2023-08-12T09:28:58;25.20;91.20
11538;DHT22;50159;49.426;11.182;2023-08-12T09:31:27;25.70;90.30
11538;DHT22;50159;49.426;11.182;2023-08-12T09:33:58;26.00;90.10
11538;DHT22;50159;49.426;11.182;2023-08-12T09:36:29;26.10;86.90
11538;DHT22;50159;49.426;11.182;2023-08-12T09:38:58;26.00;81.90
11538;DHT22;50159;49.426;11.182;2023-08-12T09:41:28;25.90;82.70
11538;DHT22;50159;49.426;11.182;2023-08-12T09:43:56;25.80;84.20
11538;DHT22;50159;49.426;11.182;2023-08-12T09:46:23;25.80;84.70
11538;DHT22;50159;49.426;11.182;2023-08-12T09:48:51;25.80;85.10
11538;DHT22;50159;49.426;11.182;2023-08-12T09:51:19;25.70;84.10
11538;DHT22;50159;49.426;11.182;2023-08-12T09:53:49;25.60;83.90
11538;DHT22;50159;49.426;11.182;2023-08-12T09:56:19;25.60;84.00
11538;DHT22;50159;49.426;11.182;2023-08-12T09:58:49;25.60;87.00
11538;DHT22;50159;49.426;11.182;2023-08-12T10:01:19;25.60;86.40
11538;DHT22;50159;49.426;11.182;2023-08-12T10:03:50;25.70;86.20
11538;DHT22;50159;49.426;11.182;2023-08-12T10:06:18;25.70;85.20
11538;DHT22;50159;49.426;11.182;2023-08-12T10:08:46;25.60;84.60
11538;DHT22;50159;49.426;11.182;2023-08-12T10:11:14;25.60;83.70
11538;DHT22;50159;49.426;11.182;2023-08-12T10:13:41;25.60;84.00
11538;DHT22;50159;49.426;11.182;2023-08-12T10:16:08;25.70;85.70
11538;DHT22;50159;49.426;11.182;2023-08-12T10:18:38;25.90;85.20
11538;DHT22;50159;49.426;11.182;2023-08-12T10:21:06;26.10;84.10
11538;DHT22;50159;49.426;11.182;2023-08-12T10:23:36;26.50;82.90
11538;DHT22;50159;49.426;11.182;2023-08-12T10:26:05;26.70;79.10
11538;DHT22;50159;49.426;11.182;2023-08-12T10:28:33;26.90;79.80
11538;DHT22;50159;49.426;11.182;2023-08-12T10:31:04;26.90;79.00
11538;DHT22;50159;49.426;11.182;2023-08-12T10:33:39;26.80;79.00
11538;DHT22;50159;49.426;11.182;2023-08-12T10:36:06;27.00;80.70
11538;DHT22;50159;49.426;11.182;2023-08-12T10:38:34;27.20;79.90
11538;DHT22;50159;49.426;11.182;2023-08-12T10:41:20;27.50;79.30
11538;DHT22;50159;49.426;11.182;2023-08-12T10:46:36;27.70;76.90
11538;DHT22;50159;49.426;11.182;2023-08-12T10:49:04;27.90;75.40
11538;DHT22;50159;49.426;11.182;2023-08-12T10:51:48;28.00;73.00
11538;DHT22;50159;49.426;11.182;2023-08-12T10:57:12;28.30;73.70
11538;DHT22;50159;49.426;11.182;2023-08-12T11:04:42;29.00;68.70
11538;DHT22;50159;49.426;11.182;2023-08-12T11:07:31;29.10;66.90
11538;DHT22;50159;49.426;11.182;2023-08-12T11:10:19;29.20;67.70
11538;DHT22;50159;49.426;11.182;2023-08-12T11:17:55;29.40;66.10
11538;DHT22;50159;49.426;11.182;2023-08-12T11:20:22;29.40;65.50
11538;DHT22;50159;49.426;11.182;2023-08-12T11:22:50;29.50;65.60
11538;DHT22;50159;49.426;11.182;2023-08-12T11:25:17;29.70;66.80
11538;DHT22;50159;49.426;11.182;2023-08-12T11:27:47;29.70;66.00
11538;DHT22;50159;49.426;11.182;2023-08-12T11:30:16;29.80;64.40
11538;DHT22;50159;49.426;11.182;2023-08-12T11:32:44;29.90;64.20
11538;DHT22;50159;49.426;11.182;2023-08-12T11:35:12;29.90;62.60
11538;DHT22;50159;49.426;11.182;2023-08-12T11:37:41;29.80;62.50
11538;DHT22;50159;49.426;11.182;2023-08-12T11:40:10;29.90;60.70
11538;DHT22;50159;49.426;11.182;2023-08-12T11:42:38;29.80;60.10
11538;DHT22;50159;49.426;11.182;2023-08-12T11:45:06;29.70;60.40
11538;DHT22;50159;49.426;11.182;2023-08-12T11:47:38;29.70;60.00
11538;DHT22;50159;49.426;11.182;2023-08-12T11:50:06;29.70;60.70
11538;DHT22;50159;49.426;11.182;2023-08-12T11:52:35;29.80;60.60
11538;DHT22;50159;49.426;11.182;2023-08-12T11:55:03;30.00;63.20
11538;DHT22;50159;49.426;11.182;2023-08-12T11:57:30;30.20;61.40
11538;DHT22;50159;49.426;11.182;2023-08-12T12:00:01;30.30;60.00
11538;DHT22;50159;49.426;11.182;2023-08-12T12:02:37;30.40;59.40
11538;DHT22;50159;49.426;11.182;2023-08-12T12:05:08;30.60;59.70
11538;DHT22;50159;49.426;11.182;2023-08-12T12:07:36;30.80;58.40
11538;DHT22;50159;49.426;11.182;2023-08-12T12:10:04;30.90;58.00
11538;DHT22;50159;49.426;11.182;2023-08-12T12:12:36;31.00;57.90
11538;DHT22;50159;49.426;11.182;2023-08-12T12:15:03;31.10;57.10
11538;DHT22;50159;49.426;11.182;2023-08-12T12:17:31;31.30;58.80
11538;DHT22;50159;49.426;11.182;2023-08-12T12:20:00;31.50;57.80
11538;DHT22;50159;49.426;11.182;2023-08-12T12:22:29;31.70;57.30
11538;DHT22;50159;49.426;11.182;2023-08-12T12:25:00;31.90;56.80
11538;DHT22;50159;49.426;11.182;2023-08-12T12:27:27;32.00;55.50
11538;DHT22;50159;49.426;11.182;2023-08-12T12:29:54;31.90;54.80
11538;DHT22;50159;49.426;11.182;2023-08-12T12:32:21;32.00;54.80
11538;DHT22;50159;49.426;11.182;2023-08-12T12:34:48;32.20;53.90
11538;DHT22;50159;49.426;11.182;2023-08-12T12:37:15;32.10;54.10
11538;DHT22;50159;49.426;11.182;2023-08-12T12:39:41;32.20;54.10
11538;DHT22;50159;49.426;11.182;2023-08-12T12:42:08;32.20;53.20
11538;DHT22;50159;49.426;11.182;2023-08-12T12:44:35;32.00;52.50
11538;DHT22;50159;49.426;11.182;2023-08-12T12:47:03;32.10;54.20
11538;DHT22;50159;49.426;11.182;2023-08-12T12:49:30;32.20;52.50
11538;DHT22;50159;49.426;11.182;2023-08-12T12:51:56;31.80;52.30
11538;DHT22;50159;49.426;11.182;2023-08-12T12:54:23;31.70;52.60
11538;DHT22;50159;49.426;11.182;2023-08-12T12:56:50;31.60;54.40
11538;DHT22;50159;49.426;11.182;2023-08-12T12:59:17;32.00;55.10
11538;DHT22;50159;49.426;11.182;2023-08-12T13:01:45;32.30;52.00
11538;DHT22;50159;49.426;11.182;2023-08-12T13:04:12;32.20;51.70
11538;DHT22;50159;49.426;11.182;2023-08-12T13:06:38;32.50;51.80
11538;DHT22;50159;49.426;11.182;2023-08-12T13:09:05;32.70;49.70
11538;DHT22;50159;49.426;11.182;2023-08-12T13:11:33;32.60;50.60
11538;DHT22;50159;49.426;11.182;2023-08-12T13:14:03;32.40;50.70
11538;DHT22;50159;49.426;11.182;2023-08-12T13:16:30;32.20;51.70
11538;DHT22;50159;49.426;11.182;2023-08-12T13:18:57;32.00;52.70
11538;DHT22;50159;49.426;11.182;2023-08-12T13:21:25;31.80;52.10
11538;DHT22;50159;49.426;11.182;2023-08-12T13:23:52;31.60;52.00
11538;DHT22;50159;49.426;11.182;2023-08-12T13:26:20;31.40;52.60
11538;DHT22;50159;49.426;11.182;2023-08-12T13:28:47;31.50;53.90
11538;DHT22;50159;49.426;11.182;2023-08-12T13:31:14;31.90;53.10
11538;DHT22;50159;49.426;11.182;2023-08-12T13:33:41;32.50;52.80
11538;DHT22;50159;49.426;11.182;2023-08-12T13:36:08;33.00;50.80
11538;DHT22;50159;49.426;11.182;2023-08-12T13:38:35;33.00;49.10
11538;DHT22;50159;49.426;11.182;2023-08-12T13:41:02;32.80;49.80
11538;DHT22;50159;49.426;11.182;2023-08-12T13:43:28;32.70;50.40
11538;DHT22;50159;49.426;11.182;2023-08-12T13:45:56;32.90;50.50
11538;DHT22;50159;49.426;11.182;2023-08-12T13:48:23;32.70;50.60
11538;DHT22;50159;49.426;11.182;2023-08-12T13:50:50;32.30;52.00
11538;DHT22;50159;49.426;11.182;2023-08-12T13:53:18;31.90;51.90
11538;DHT22;50159;49.426;11.182;2023-08-12T13:55:46;31.60;53.20
11538;DHT22;50159;49.426;11.182;2023-08-12T13:58:12;31.20;53.20
11538;DHT22;50159;49.426;11.182;2023-08-12T14:00:39;31.00;53.70
11538;DHT22;50159;49.426;11.182;2023-08-12T14:03:06;30.80;54.70
11538;DHT22;50159;49.426;11.182;2023-08-12T14:05:32;30.70;55.50
11538;DHT22;50159;49.426;11.182;2023-08-12T14:07:59;30.60;56.10
11538;DHT22;50159;49.426;11.182;2023-08-12T14:10:26;30.60;55.80
11538;DHT22;50159;49.426;11.182;2023-08-12T14:12:53;30.60;56.20
11538;DHT22;50159;49.426;11.182;2023-08-12T14:15:20;30.60;56.60
11538;DHT22;50159;49.426;11.182;2023-08-12T14:17:47;30.60;56.30
11538;DHT22;50159;49.426;11.182;2023-08-12T14:20:14;30.50;56.30
11538;DHT22;50159;49.426;11.182;2023-08-12T14:22:41;30.40;57.10
11538;DHT22;50159;49.426;11.182;2023-08-12T14:25:10;30.10;58.30
11538;DHT22;50159;49.426;11.182;2023-08-12T14:27:38;29.60;60.00
11538;DHT22;50159;49.426;11.182;2023-08-12T14:30:05;29.00;62.80
11538;DHT22;50159;49.426;11.182;2023-08-12T14:32:32;28.50;65.50
11538;DHT22;50159;49.426;11.182;2023-08-12T14:34:58;27.90;67.30
11538;DHT22;50159;49.426;11.182;2023-08-12T14:37:25;27.30;69.80
11538;DHT22;50159;49.426;11.182;2023-08-12T14:39:54;26.80;73.30
11538;DHT22;50159;49.426;11.182;2023-08-12T14:42:21;26.30;75.40
11538;DHT22;50159;49.426;11.182;2023-08-12T14:44:47;25.80;79.00
11538;DHT22;50159;49.426;11.182;2023-08-12T14:47:14;25.20;83.90
11538;DHT22;50159;49.426;11.182;2023-08-12T14:49:41;24.50;88.40
11538;DHT22;50159;49.426;11.182;2023-08-12T14:52:18;24.00;92.40
11538;DHT22;50159;49.426;11.182;2023-08-12T14:54:46;23.70;98.60
11538;DHT22;50159;49.426;11.182;2023-08-12T14:57:13;23.40;99.90
11538;DHT22;50159;49.426;11.182;2023-08-12T14:59:40;23.10;99.90
11538;DHT22;50159;49.426;11.182;2023-08-12T15:02:07;23.00;99.90
11538;DHT22;50159;49.426;11.182;2023-08-12T15:04:34;22.90;99.90
11538;DHT22;50159;49.426;11.182;2023-08-12T15:07:01;22.80;99.90
11538;DHT22;50159;49.426;11.182;2023-08-12T15:09:28;22.80;99.90
11538;DHT22;50159;49.426;11.182;2023-08-12T15:11:56;22.70;99.90
11538;DHT22;50159;49.426;11.182;2023-08-12T15:14:22;22.60;99.90
11538;DHT22;50159;49.426;11.182;2023-08-12T15:16:49;22.50;99.90
11538;DHT22;50159;49.426;11.182;2023-08-12T15:19:16;22.20;99.90
11538;DHT22;50159;49.426;11.182;2023-08-12T15:21:43;21.90;99.90
11538;DHT22;50159;49.426;11.182;2023-08-12T15:24:09;21.60;99.90
11538;DHT22;50159;49.426;11.182;2023-08-12T15:26:37;21.50;99.90
11538;DHT22;50159;49.426;11.182;2023-08-12T15:29:04;21.40;99.90
11538;DHT22;50159;49.426;11.182;2023-08-12T15:31:31;21.30;99.90
11538;DHT22;50159;49.426;11.182;2023-08-12T15:33:57;21.30;99.90